Cat Bi International Airport
VVCI : now visible

Airfield :











YOU CAN JOIN US ON...

 
LOGIN :

Register | Disclaimer

   EN    FR    IT 

 









Legend :    VFR   Marginal VFR   IFR   Intensive IFR   Very Intensive IFR
Visi :
Ceiling :
>= 8 km
>= 3000ft
5 to 8 km
1000 to 3000 ft
1500m to 5 km
500 to 1000 ft
800 to 1500m
200 to 500 ft
< 800m
< 200 ft
Symbols :   Thunderstorms  Fog  Heavy snow  Heavy precipitations  Wind > 20 kt






- Airport Elevation : 6 ft
- IATA code : HPH


VVCI - Cat Bi International

CURRENT METAR :
  • 201600Z 00000KT 9999 SCT032 BKN036 27/25 Q1008 NOSIG

EXPIRED METARs :
  • 201530Z 00000KT 9999 BKN031 27/25 Q1008 NOSIG
  • 201500Z VRB01KT 9999 FEW030 SCT034 27/25 Q1008 NOSIG
  • 201430Z VRB02KT CAVOK 27/25 Q1007 NOSIG
  • 201400Z 14002KT CAVOK 27/25 Q1007 NOSIG
  • 201330Z 12002KT CAVOK 27/25 Q1007 NOSIG
  • 201300Z 12003KT 080V140 CAVOK 27/25 Q1006 NOSIG
  • 201230Z 13004KT CAVOK 27/25 Q1006 NOSIG
  • 201200Z 14004KT 110V180 9999 FEW041 28/25 Q1005 NOSIG

TAF TAF VVCI
Valid from the 20 at 12:00 until the 21 at 12:00 UTC


201100Z 2012/2112 14008KT 9999 SCT015 BKN040
TEMPO 2021/2101 4000 TSRA BKN015 FEW027CB



MET'MAP, your aeronautical weather chart ! - Copyright ORBIFLY December 2007 - Disclaimer

ORBIFLY MET'MAP TEAM :

Programming & Development : Alexandra Zaïnal
Original concept : Baudouin d'Aumeries
Technical & hardware support : Manuel Goepfert
Assistance : Marc-Olivier Méhu




SOURCES & CREDITS :

   NOAA       Earth
Advisory